createdAt,value
2023-05-12T00:02:55.192Z,9.36
2023-05-12T00:07:57.918Z,8.60
2023-05-12T00:13:00.533Z,8.80
2023-05-12T00:18:03.070Z,8.77
2023-05-12T00:23:05.911Z,8.22
2023-05-12T00:28:11.278Z,8.69
2023-05-12T00:33:13.979Z,8.96
2023-05-12T00:38:16.667Z,8.79
2023-05-12T00:43:19.441Z,8.71
2023-05-12T00:48:22.162Z,8.48
2023-05-12T00:53:27.771Z,8.79
2023-05-12T00:58:35.003Z,8.77
2023-05-12T01:03:37.734Z,8.59
2023-05-12T01:08:42.728Z,7.52
2023-05-12T01:13:45.581Z,8.38
2023-05-12T01:18:51.410Z,8.59
2023-05-12T01:23:59.105Z,8.55
2023-05-12T01:29:05.071Z,7.49
2023-05-12T01:34:07.561Z,8.65
2023-05-12T01:39:10.197Z,7.85
2023-05-12T01:44:12.600Z,7.81
2023-05-12T01:49:15.608Z,8.60
2023-05-12T01:54:18.446Z,8.45
2023-05-12T01:59:21.235Z,8.24
2023-05-12T02:04:24.122Z,7.74
2023-05-12T02:09:28.005Z,6.71
2023-05-12T02:14:35.108Z,7.87
2023-05-12T02:19:37.757Z,7.65
2023-05-12T02:24:41.915Z,7.99
2023-05-12T02:29:44.547Z,6.12
2023-05-12T02:34:47.902Z,7.95
2023-05-12T02:39:50.829Z,7.77
2023-05-12T02:44:54.456Z,7.83
2023-05-12T02:49:57.412Z,8.35
2023-05-12T02:55:00.208Z,8.55
2023-05-12T03:00:06.382Z,8.59
2023-05-12T03:05:11.610Z,6.10
2023-05-12T03:10:14.247Z,5.36
2023-05-12T03:15:16.842Z,7.41
2023-05-12T03:20:20.270Z,7.90
2023-05-12T03:25:23.037Z,8.21
2023-05-12T03:30:25.559Z,8.49
2023-05-12T03:35:28.163Z,8.41
2023-05-12T03:40:31.138Z,8.76
2023-05-12T03:45:33.931Z,8.98
2023-05-12T03:50:36.357Z,8.29
2023-05-12T03:55:38.982Z,9.12
2023-05-12T04:00:41.375Z,9.17
2023-05-12T04:05:43.880Z,9.23
2023-05-12T04:10:46.232Z,9.32
2023-05-12T04:15:49.739Z,9.27
2023-05-12T04:20:52.220Z,9.16
2023-05-12T04:25:54.581Z,9.63
2023-05-12T04:30:57.251Z,9.98
2023-05-12T04:36:00.503Z,10.13
2023-05-12T04:41:03.618Z,10.60
2023-05-12T04:46:06.548Z,11.10
2023-05-12T04:51:09.633Z,11.39
2023-05-12T04:56:12.814Z,11.42
2023-05-12T05:01:15.370Z,11.62
2023-05-12T05:06:18.560Z,12.36
2023-05-12T05:11:22.695Z,13.02
2023-05-12T05:16:25.708Z,13.39
2023-05-12T05:21:28.534Z,13.28
2023-05-12T05:26:32.301Z,14.28
2023-05-12T05:31:35.868Z,14.62
2023-05-12T05:36:38.493Z,14.78
2023-05-12T05:41:41.100Z,14.88
2023-05-12T05:46:44.495Z,15.01
2023-05-12T05:51:47.450Z,15.36
2023-05-12T05:56:51.566Z,15.80
2023-05-12T06:01:54.115Z,15.81
2023-05-12T06:06:56.737Z,15.86
2023-05-12T06:11:59.207Z,16.42
2023-05-12T06:17:01.632Z,16.41
2023-05-12T06:22:04.263Z,16.35
2023-05-12T06:27:07.048Z,17.03
2023-05-12T06:32:09.797Z,17.06
2023-05-12T06:37:12.375Z,17.11
2023-05-12T06:42:16.336Z,17.67
2023-05-12T06:47:19.735Z,17.93
2023-05-12T06:52:24.302Z,17.72
2023-05-12T06:57:26.800Z,17.93
2023-05-12T07:02:30.159Z,18.39
2023-05-12T07:07:33.130Z,18.47
2023-05-12T07:12:35.661Z,18.52
2023-05-12T07:17:38.718Z,18.96
2023-05-12T07:22:41.329Z,19.24
2023-05-12T07:27:43.862Z,19.39
2023-05-12T07:32:46.866Z,19.42
2023-05-12T07:37:49.233Z,19.47
2023-05-12T07:42:54.630Z,19.87
2023-05-12T07:47:57.054Z,19.57
2023-05-12T07:52:59.516Z,20.14
2023-05-12T07:58:02.879Z,20.51
2023-05-12T08:03:07.052Z,20.71
2023-05-12T08:08:16.950Z,20.37
2023-05-12T08:13:19.869Z,20.61
2023-05-12T08:18:22.363Z,20.68
2023-05-12T08:23:24.808Z,20.68
2023-05-12T08:28:27.474Z,19.91
2023-05-12T08:33:29.912Z,20.18
2023-05-12T08:38:33.006Z,20.14
2023-05-12T08:43:44.388Z,20.39
2023-05-12T08:48:49.949Z,20.40
2023-05-12T08:53:55.165Z,20.46
2023-05-12T08:58:57.811Z,20.59
2023-05-12T09:04:00.495Z,20.99
2023-05-12T09:09:03.887Z,21.04
2023-05-12T09:14:12.132Z,21.15
2023-05-12T09:19:19.827Z,21.20
2023-05-12T09:24:34.427Z,21.06
2023-05-12T09:29:42.475Z,20.82
2023-05-12T09:34:51.931Z,20.83
2023-05-12T09:40:07.193Z,20.89
2023-05-12T09:45:11.326Z,20.65
2023-05-12T09:50:13.812Z,20.61
2023-05-12T09:55:16.304Z,20.36
2023-05-12T10:00:34.493Z,20.69
2023-05-12T10:05:51.996Z,21.17
2023-05-12T10:10:57.145Z,21.17
2023-05-12T10:16:00.072Z,21.09
2023-05-12T10:21:03.306Z,21.20
2023-05-12T10:26:06.976Z,21.15
2023-05-12T10:31:10.666Z,21.06
2023-05-12T10:36:20.165Z,21.19
2023-05-12T10:41:33.253Z,21.03
2023-05-12T10:46:35.753Z,21.07
2023-05-12T10:51:38.213Z,21.41
2023-05-12T10:56:40.878Z,21.60
2023-05-12T11:02:03.625Z,21.76
2023-05-12T11:07:09.991Z,21.65
2023-05-12T11:12:14.283Z,21.67
2023-05-12T11:17:16.783Z,21.93
2023-05-12T11:22:21.858Z,22.00
2023-05-12T11:27:24.553Z,21.93
2023-05-12T11:32:28.988Z,21.72
2023-05-12T11:37:37.377Z,22.02
2023-05-12T11:42:42.151Z,21.92
2023-05-12T11:47:44.666Z,21.74
2023-05-12T11:52:47.222Z,21.68
2023-05-12T11:58:06.836Z,22.00
2023-05-12T12:03:14.453Z,22.15
2023-05-12T12:08:17.238Z,22.04
2023-05-12T12:13:22.000Z,21.99
2023-05-12T12:18:24.546Z,22.12
2023-05-12T12:23:27.163Z,22.26
2023-05-12T12:28:29.547Z,22.15
2023-05-12T12:33:32.001Z,22.01
2023-05-12T12:38:34.432Z,22.20
2023-05-12T12:43:36.947Z,22.45
2023-05-12T12:48:39.405Z,22.16
2023-05-12T12:53:44.175Z,22.20
2023-05-12T12:58:46.881Z,22.42
2023-05-12T13:03:49.416Z,22.18
2023-05-12T13:08:52.232Z,22.32
2023-05-12T13:13:56.085Z,21.66
2023-05-12T13:18:58.496Z,22.28
2023-05-12T13:24:01.087Z,22.36
2023-05-12T13:29:04.640Z,22.04
2023-05-12T13:34:07.270Z,22.03
2023-05-12T13:39:10.594Z,22.06
2023-05-12T13:44:13.018Z,22.01
2023-05-12T13:49:15.670Z,21.92
2023-05-12T13:54:18.086Z,22.02
2023-05-12T13:59:20.814Z,21.74
2023-05-12T14:04:23.130Z,21.93
2023-05-12T14:09:26.064Z,21.78
2023-05-12T14:14:28.520Z,21.43
2023-05-12T14:19:31.106Z,21.90
2023-05-12T14:24:33.599Z,21.61
2023-05-12T14:29:36.214Z,21.97
2023-05-12T14:34:38.748Z,21.67
2023-05-12T14:39:41.535Z,21.68
2023-05-12T14:44:44.102Z,21.74
2023-05-12T14:49:46.715Z,21.33
2023-05-12T14:54:49.177Z,21.23
2023-05-12T14:59:54.712Z,21.42
2023-05-12T15:04:57.196Z,20.78
2023-05-12T15:09:59.621Z,21.39
2023-05-12T15:15:04.370Z,21.07
2023-05-12T15:20:10.862Z,21.11
2023-05-12T15:25:13.282Z,20.83
2023-05-12T15:30:16.242Z,20.97
2023-05-12T15:35:19.467Z,20.60
2023-05-12T15:40:22.133Z,20.79
2023-05-12T15:45:24.582Z,20.81
2023-05-12T15:50:26.937Z,20.60
2023-05-12T15:55:30.304Z,20.49
2023-05-12T16:00:32.853Z,20.59
2023-05-12T16:05:38.217Z,20.42
2023-05-12T16:10:40.809Z,20.15
2023-05-12T16:15:43.393Z,20.30
2023-05-12T16:20:47.868Z,19.66
2023-05-12T16:25:51.425Z,20.28
2023-05-12T16:30:54.113Z,20.07
2023-05-12T16:35:56.641Z,19.93
2023-05-12T16:41:00.426Z,19.77
2023-05-12T16:46:04.518Z,19.60
2023-05-12T16:51:10.050Z,19.46
2023-05-12T16:56:12.676Z,19.51
2023-05-12T17:01:15.651Z,19.47
2023-05-12T17:06:18.375Z,19.28
2023-05-12T17:11:20.925Z,18.93
2023-05-12T17:16:23.590Z,19.05
2023-05-12T17:21:26.128Z,18.88
2023-05-12T17:26:29.651Z,18.79
2023-05-12T17:31:35.145Z,18.73
2023-05-12T17:36:37.769Z,18.44
2023-05-12T17:41:40.312Z,18.27
2023-05-12T17:46:42.788Z,18.06
2023-05-12T17:51:45.462Z,18.02
2023-05-12T17:56:49.044Z,17.60
2023-05-12T18:01:52.324Z,17.48
2023-05-12T18:06:55.403Z,17.28
2023-05-12T18:12:00.984Z,17.43
2023-05-12T18:17:03.568Z,16.76
2023-05-12T18:22:08.461Z,16.82
2023-05-12T18:27:11.161Z,16.39
2023-05-12T18:32:15.248Z,16.75
2023-05-12T18:37:17.953Z,16.22
2023-05-12T18:42:21.097Z,16.17
2023-05-12T18:47:23.673Z,16.10
2023-05-12T18:52:26.105Z,16.14
2023-05-12T18:57:28.653Z,15.66
2023-05-12T19:02:31.657Z,15.71
2023-05-12T19:07:34.346Z,15.14
2023-05-12T19:12:36.924Z,14.99
2023-05-12T19:17:41.355Z,15.35
2023-05-12T19:22:44.434Z,14.75
2023-05-12T19:27:46.968Z,15.20
2023-05-12T19:32:50.679Z,15.07
2023-05-12T19:37:55.627Z,14.45
2023-05-12T19:42:58.258Z,14.31
2023-05-12T19:48:00.899Z,14.59
2023-05-12T19:53:03.621Z,14.46
2023-05-12T19:58:06.103Z,14.47
2023-05-12T20:03:09.168Z,14.38
2023-05-12T20:08:11.936Z,14.29
2023-05-12T20:13:14.455Z,13.98
2023-05-12T20:18:17.349Z,13.91
2023-05-12T20:23:21.498Z,13.72
2023-05-12T20:28:24.445Z,13.68
2023-05-12T20:33:26.897Z,13.73
2023-05-12T20:38:30.475Z,13.63
2023-05-12T20:43:33.586Z,13.13
2023-05-12T20:48:35.948Z,12.67
2023-05-12T20:53:39.011Z,12.96
2023-05-12T20:58:41.793Z,13.18
2023-05-12T21:03:44.359Z,12.83
2023-05-12T21:08:47.591Z,13.04
2023-05-12T21:13:50.002Z,12.64
2023-05-12T21:18:52.577Z,12.62
2023-05-12T21:23:55.069Z,12.49
2023-05-12T21:28:58.054Z,12.50
2023-05-12T21:34:00.399Z,11.82
2023-05-12T21:39:03.027Z,12.51
2023-05-12T21:44:10.472Z,12.31
2023-05-12T21:49:14.654Z,12.22
2023-05-12T21:54:17.150Z,12.14
2023-05-12T21:59:19.655Z,12.21
2023-05-12T22:04:22.169Z,11.39
2023-05-12T22:09:24.601Z,11.76
2023-05-12T22:14:27.273Z,12.14
2023-05-12T22:19:29.701Z,11.84
2023-05-12T22:24:32.308Z,11.80
2023-05-12T22:29:34.930Z,11.80
2023-05-12T22:34:37.597Z,11.82
2023-05-12T22:39:40.086Z,10.97
2023-05-12T22:44:42.597Z,11.32
2023-05-12T22:49:45.154Z,10.67
2023-05-12T22:54:47.546Z,11.69
2023-05-12T22:59:50.218Z,10.69
2023-05-12T23:04:52.586Z,11.43
2023-05-12T23:09:55.062Z,11.37
2023-05-12T23:14:57.486Z,10.62
2023-05-12T23:20:00.095Z,11.43
2023-05-12T23:25:02.594Z,11.36
2023-05-12T23:30:07.628Z,11.04
2023-05-12T23:35:10.473Z,11.05
2023-05-12T23:40:13.077Z,10.88
2023-05-12T23:45:16.277Z,10.65
2023-05-12T23:50:18.860Z,10.59
2023-05-12T23:55:22.125Z,10.50
